Time;durP1;ratioP1;P1;durP2;ratioP2;P2;SDS_P1;SDS_P2;PMS_P1;PMS_P2;Temp;Humidity;BMP_temperature;BMP_pressure;BME280_temperature;BME280_humidity;BME280_pressure;Samples;Min_cycle;Max_cycle;Signal;HPM_P1;HPM_P2
2021/12/20 00:02:01;;;;;;;;;2.00;1.25;;;;;7.05;81.46;102826.38;5012571;28;10062;-71
2021/12/20 00:04:27;;;;;;;;;2.00;1.00;;;;;7.11;82.33;102825.03;5012054;28;10291;-70
2021/12/20 00:06:57;;;;;;;;;0.00;0.00;;;;;7.13;83.18;102824.91;5011315;28;10039;-72
2021/12/20 00:09:23;;;;;;;;;1.00;1.00;;;;;7.13;83.18;102828.47;4994581;28;11208;-72
2021/12/20 00:11:50;;;;;;;;;0.00;0.00;;;;;7.12;83.27;102829.44;5012064;28;10132;-72
2021/12/20 00:14:16;;;;;;;;;0.00;0.00;;;;;7.12;83.48;102828.59;5012257;28;9930;-72
2021/12/20 00:16:43;;;;;;;;;1.50;1.50;;;;;7.15;82.92;102826.53;5012276;28;10669;-72
2021/12/20 00:19:10;;;;;;;;;0.00;0.00;;;;;7.17;83.17;102816.47;5009962;28;10104;-71
2021/12/20 00:21:38;;;;;;;;;0.00;0.00;;;;;7.16;83.93;102819.28;4992723;28;10099;-72
2021/12/20 00:24:05;;;;;;;;;0.00;0.00;;;;;7.11;83.79;102811.56;4994502;28;10017;-71
2021/12/20 00:26:32;;;;;;;;;0.50;0.00;;;;;7.07;83.98;102810.09;5010828;28;10142;-70
2021/12/20 00:29:01;;;;;;;;;0.00;0.00;;;;;7.02;83.15;102812.28;5011495;28;10155;-69
2021/12/20 00:31:31;;;;;;;;;0.25;0.25;;;;;6.96;82.01;102805.56;5005852;28;10019;-70
2021/12/20 00:33:58;;;;;;;;;0.50;0.00;;;;;7.06;82.49;102811.94;5008835;28;12003;-70
2021/12/20 00:36:29;;;;;;;;;0.00;0.00;;;;;7.07;82.69;102815.50;5010710;28;10036;-70
2021/12/20 00:41:41;;;;;;;;;0.00;0.00;;;;;7.07;83.04;102804.72;5011843;28;10151;-69
2021/12/20 00:44:08;;;;;;;;;1.50;0.50;;;;;7.06;83.03;102803.84;5011789;28;10089;-69
2021/12/20 00:46:52;;;;;;;;;1.00;1.00;;;;;7.06;83.44;102803.84;5011431;28;11337;-69
2021/12/20 00:49:18;;;;;;;;;2.50;1.50;;;;;7.02;82.75;102807.75;5005804;28;10189;-69
2021/12/20 00:51:45;;;;;;;;;5.75;1.00;;;;;7.02;82.75;102815.84;4993312;28;10257;-68
2021/12/20 00:54:11;;;;;;;;;0.75;0.75;;;;;6.99;82.42;102808.00;5011562;28;10227;-70
2021/12/20 00:56:38;;;;;;;;;1.00;1.00;;;;;7.00;81.90;102801.63;5010336;28;10151;-69
2021/12/20 00:59:04;;;;;;;;;1.50;1.00;;;;;6.97;82.12;102791.09;5010928;28;10308;-70
2021/12/20 01:01:31;;;;;;;;;1.00;1.00;;;;;7.00;82.75;102808.88;5011179;28;10252;-70
2021/12/20 01:03:57;;;;;;;;;0.25;0.00;;;;;6.98;81.69;102792.81;5009215;28;10065;-70
2021/12/20 01:06:24;;;;;;;;;0.75;0.75;;;;;7.00;82.15;102801.63;5013062;28;10121;-70
2021/12/20 01:08:51;;;;;;;;;1.00;1.00;;;;;7.05;83.10;102801.28;5012653;28;10082;-70
2021/12/20 01:11:23;;;;;;;;;0.00;0.00;;;;;7.03;83.31;102793.31;5012155;28;10109;-70
2021/12/20 01:13:50;;;;;;;;;0.00;0.00;;;;;7.02;82.82;102793.44;5011733;28;10082;-69
2021/12/20 01:16:17;;;;;;;;;0.00;0.00;;;;;7.06;83.10;102795.78;4992762;28;10174;-70
2021/12/20 01:18:44;;;;;;;;;1.75;1.00;;;;;7.00;82.67;102798.09;5009656;28;11006;-70
2021/12/20 01:21:10;;;;;;;;;0.75;0.00;;;;;6.99;82.96;102804.44;5000550;28;10318;-70
2021/12/20 01:23:38;;;;;;;;;0.00;0.00;;;;;7.03;82.84;102795.16;5012401;28;10894;-70
2021/12/20 01:26:05;;;;;;;;;0.25;0.00;;;;;7.05;82.90;102801.28;4991870;28;10268;-70
2021/12/20 01:28:31;;;;;;;;;0.75;0.75;;;;;7.03;82.72;102797.84;5011418;28;10753;-71
2021/12/20 01:30:58;;;;;;;;;4.00;1.00;;;;;7.00;82.91;102809.72;5011931;28;10228;-71
2021/12/20 01:33:24;;;;;;;;;1.00;1.00;;;;;6.97;83.06;102801.03;5010659;28;10126;-71
2021/12/20 01:35:51;;;;;;;;;2.50;1.00;;;;;7.02;83.21;102805.06;5013010;28;10161;-71
2021/12/20 01:38:17;;;;;;;;;0.00;0.00;;;;;6.99;83.08;102796.38;5012044;28;10230;-71
2021/12/20 01:40:44;;;;;;;;;0.00;0.00;;;;;6.90;82.15;102802.44;5003635;28;10251;-71
2021/12/20 01:43:11;;;;;;;;;1.25;1.00;;;;;6.81;81.64;102801.31;5011803;28;10085;-70
2021/12/20 01:45:38;;;;;;;;;1.00;0.00;;;;;6.94;82.33;102803.91;5012171;28;10129;-70
2021/12/20 01:48:11;;;;;;;;;1.00;0.00;;;;;6.90;81.80;102797.91;5012492;28;10072;-70
2021/12/20 01:53:14;;;;;;;;;1.00;0.00;;;;;6.88;80.81;102799.88;5011034;28;10154;-70
2021/12/20 01:55:41;;;;;;;;;1.00;1.00;;;;;6.91;80.19;102788.84;5011560;28;10187;-70
2021/12/20 01:58:08;;;;;;;;;0.00;0.00;;;;;6.95;80.89;102786.81;5011952;28;10074;-70
2021/12/20 02:00:37;;;;;;;;;1.00;0.00;;;;;6.94;81.35;102785.97;5012144;28;9996;-71
2021/12/20 02:03:03;;;;;;;;;0.00;0.00;;;;;6.92;81.69;102787.88;5009051;28;10152;-70
2021/12/20 02:08:17;;;;;;;;;1.00;1.00;;;;;6.90;81.13;102786.28;5006363;28;10163;-71
2021/12/20 02:10:45;;;;;;;;;0.50;0.00;;;;;6.88;80.32;102786.41;5010008;28;10214;-70
2021/12/20 02:13:13;;;;;;;;;1.25;0.00;;;;;6.95;81.38;102794.91;5006626;28;10125;-70
2021/12/20 02:15:40;;;;;;;;;0.50;0.25;;;;;6.93;81.03;102783.34;5010347;28;10281;-70
2021/12/20 02:18:07;;;;;;;;;0.00;0.00;;;;;6.90;80.63;102780.91;5007795;28;10067;-70
2021/12/20 02:20:35;;;;;;;;;0.00;0.00;;;;;6.84;79.45;102784.06;5000376;28;10219;-70
2021/12/20 02:23:04;;;;;;;;;0.00;0.00;;;;;6.91;79.28;102796.94;5008173;28;10313;-70
2021/12/20 02:25:32;;;;;;;;;0.00;0.00;;;;;6.94;79.01;102796.72;4990811;28;10098;-69
2021/12/20 02:28:04;;;;;;;;;0.00;0.00;;;;;6.96;79.94;102789.41;5009514;28;10061;-71
2021/12/20 02:38:35;;;;;;;;;0.50;0.50;;;;;6.95;78.34;102789.50;5009790;28;10011;-70
2021/12/20 02:41:22;;;;;;;;;0.00;0.00;;;;;6.94;79.00;102783.28;5004578;28;10135;-69
2021/12/20 02:43:54;;;;;;;;;0.50;0.50;;;;;6.97;79.56;102774.94;5009822;28;10140;-70
2021/12/20 02:46:50;;;;;;;;;1.00;0.00;;;;;6.94;79.44;102775.19;5009534;28;10070;-70
2021/12/20 02:49:22;;;;;;;;;0.00;0.00;;;;;6.97;79.47;102774.09;5009650;28;10138;-70
2021/12/20 02:51:53;;;;;;;;;0.00;0.00;;;;;6.93;79.01;102765.38;5009732;28;10234;-69
2021/12/20 02:54:21;;;;;;;;;1.00;1.00;;;;;6.79;77.77;102773.66;5008426;28;10064;-70
2021/12/20 02:56:49;;;;;;;;;2.00;1.75;;;;;6.84;78.53;102770.59;5007542;28;10286;-70
2021/12/20 02:59:17;;;;;;;;;2.00;1.00;;;;;6.87;79.58;102767.69;5007222;28;10421;-70
2021/12/20 03:01:58;;;;;;;;;0.75;0.75;;;;;6.84;80.03;102771.47;4990644;28;10129;-70
2021/12/20 03:04:25;;;;;;;;;1.00;0.00;;;;;6.83;79.68;102768.91;4989944;28;10158;-70
2021/12/20 03:06:56;;;;;;;;;1.00;0.00;;;;;6.83;79.90;102766.19;5000495;28;10054;-70
2021/12/20 03:09:28;;;;;;;;;0.00;0.00;;;;;6.84;80.28;102766.09;5009039;28;10215;-70
2021/12/20 03:11:58;;;;;;;;;1.00;0.00;;;;;6.84;80.28;102763.41;5006690;28;9999;-70
2021/12/20 03:14:34;;;;;;;;;3.00;0.00;;;;;6.84;80.30;102776.00;5009842;28;10238;-69
2021/12/20 03:17:02;;;;;;;;;0.00;0.00;;;;;6.85;80.52;102767.81;5009268;28;11053;-69
2021/12/20 03:19:29;;;;;;;;;2.75;0.00;;;;;6.86;80.35;102772.22;5007352;28;10219;-70
2021/12/20 03:21:57;;;;;;;;;1.00;1.00;;;;;6.82;80.66;102772.56;5010742;28;10122;-70
2021/12/20 03:24:24;;;;;;;;;1.00;1.00;;;;;6.82;80.51;102768.03;5013005;28;10065;-70
2021/12/20 03:26:51;;;;;;;;;1.00;1.00;;;;;6.83;80.78;102768.91;5011492;28;10082;-71
2021/12/20 03:29:17;;;;;;;;;1.00;1.00;;;;;6.79;80.46;102770.97;5013012;28;10106;-70
2021/12/20 03:31:43;;;;;;;;;0.00;0.00;;;;;6.82;81.36;102776.13;5012862;28;10012;-70
2021/12/20 03:34:11;;;;;;;;;1.00;1.00;;;;;6.82;81.37;102767.19;5008136;28;10243;-71
2021/12/20 03:36:37;;;;;;;;;0.25;0.25;;;;;6.82;81.66;102769.88;5012377;28;10196;-70
2021/12/20 03:39:07;;;;;;;;;1.50;1.00;;;;;6.81;81.80;102769.00;5012877;28;10807;-70
2021/12/20 03:41:33;;;;;;;;;0.00;0.00;;;;;6.77;81.25;102771.09;5013634;28;10205;-70
2021/12/20 03:44:00;;;;;;;;;3.25;2.25;;;;;6.69;80.26;102769.94;4995341;28;10873;-70
2021/12/20 03:46:27;;;;;;;;;1.00;1.00;;;;;6.71;81.54;102766.19;5012561;28;10388;-70
2021/12/20 03:48:53;;;;;;;;;1.00;1.00;;;;;6.75;82.10;102761.41;5012626;28;10306;-69
2021/12/20 03:51:20;;;;;;;;;2.75;0.25;;;;;6.76;82.45;102771.22;5009524;28;10214;-71
2021/12/20 03:53:46;;;;;;;;;5.75;3.00;;;;;6.82;82.96;102767.19;5012487;28;10105;-71
2021/12/20 03:56:13;;;;;;;;;2.50;1.00;;;;;6.71;82.35;102773.41;5012382;28;10222;-71
2021/12/20 03:58:40;;;;;;;;;0.00;0.00;;;;;6.72;82.58;102767.03;5011192;28;10152;-70
2021/12/20 04:01:10;;;;;;;;;1.50;0.00;;;;;6.76;82.81;102757.75;5009670;28;10765;-70
2021/12/20 04:03:37;;;;;;;;;0.00;0.00;;;;;6.76;82.19;102761.28;5011483;28;10235;-71
2021/12/20 04:06:07;;;;;;;;;1.75;0.00;;;;;6.74;82.49;102760.56;5010950;28;10141;-70
2021/12/20 04:08:33;;;;;;;;;2.00;0.00;;;;;6.74;81.61;102755.16;5011769;28;10276;-69
2021/12/20 04:11:01;;;;;;;;;0.00;0.00;;;;;6.81;81.80;102763.63;5012204;28;10086;-69
2021/12/20 04:13:29;;;;;;;;;1.50;1.00;;;;;6.75;80.94;102756.03;5012462;28;10093;-70
2021/12/20 04:15:56;;;;;;;;;1.75;0.00;;;;;6.77;81.39;102760.31;5012114;28;10247;-70
2021/12/20 04:18:24;;;;;;;;;0.75;0.75;;;;;6.77;81.00;102764.84;5012111;28;10091;-69
2021/12/20 04:20:51;;;;;;;;;1.25;1.00;;;;;6.79;81.22;102763.75;5011251;28;11293;-73
2021/12/20 04:23:18;;;;;;;;;3.00;1.00;;;;;6.73;80.26;102763.38;4993427;28;10078;-70
2021/12/20 04:25:44;;;;;;;;;0.00;0.00;;;;;6.71;79.29;102760.78;4993987;28;10206;-71
2021/12/20 04:28:11;;;;;;;;;0.00;0.00;;;;;6.71;78.01;102774.25;5011418;28;10050;-70
2021/12/20 04:30:37;;;;;;;;;1.00;1.00;;;;;6.68;75.63;102765.53;5011659;28;10059;-70
2021/12/20 04:33:04;;;;;;;;;0.00;0.00;;;;;6.72;75.18;102777.81;5009602;28;10236;-71
2021/12/20 04:35:31;;;;;;;;;1.00;1.00;;;;;6.73;74.69;102774.13;5011856;28;10081;-70
2021/12/20 04:37:59;;;;;;;;;0.25;0.00;;;;;6.75;74.41;102767.66;5011195;28;10184;-70
2021/12/20 04:40:25;;;;;;;;;1.50;0.50;;;;;6.77;74.60;102771.09;4996072;28;10231;-70
2021/12/20 04:42:57;;;;;;;;;0.00;0.00;;;;;6.69;73.70;102772.63;5009866;28;10073;-69
2021/12/20 04:45:26;;;;;;;;;0.25;0.00;;;;;6.69;72.43;102764.56;5011452;28;10216;-70
2021/12/20 04:47:53;;;;;;;;;0.50;0.00;;;;;6.81;73.40;102763.63;5010714;28;10078;-69
2021/12/20 04:50:21;;;;;;;;;0.00;0.00;;;;;6.84;74.51;102758.00;4994036;28;10165;-71
2021/12/20 04:52:48;;;;;;;;;0.00;0.00;;;;;6.86;75.06;102761.44;5010029;28;10066;-71
2021/12/20 04:55:15;;;;;;;;;0.00;0.00;;;;;6.86;76.54;102774.03;5011250;28;10064;-71
2021/12/20 04:57:43;;;;;;;;;0.00;0.00;;;;;6.78;75.44;102770.09;5011198;28;10209;-71
2021/12/20 05:00:13;;;;;;;;;0.00;0.00;;;;;6.84;76.14;102771.47;5011603;28;10160;-71
2021/12/20 05:02:40;;;;;;;;;0.00;0.00;;;;;6.83;76.23;102766.19;5011264;28;10053;-71
2021/12/20 05:05:07;;;;;;;;;0.00;0.00;;;;;6.77;76.62;102765.69;5005785;28;10906;-70
2021/12/20 05:07:34;;;;;;;;;1.00;0.00;;;;;6.78;77.19;102772.81;5010774;28;10141;-69
2021/12/20 05:10:02;;;;;;;;;0.00;0.00;;;;;6.82;77.66;102772.56;5011464;28;10228;-69
2021/12/20 05:12:29;;;;;;;;;1.00;0.00;;;;;6.73;76.07;102766.06;5009163;28;10299;-70
2021/12/20 05:14:55;;;;;;;;;1.00;0.00;;;;;6.78;76.59;102774.63;5010699;28;10294;-70
2021/12/20 05:17:22;;;;;;;;;1.00;1.00;;;;;6.68;73.07;102765.53;5010598;28;10090;-71
2021/12/20 05:19:48;;;;;;;;;2.00;0.00;;;;;6.69;72.70;102769.94;4993084;28;10101;-71
2021/12/20 05:22:16;;;;;;;;;0.00;0.00;;;;;6.72;72.04;102764.34;5010540;28;10076;-71
2021/12/20 05:24:42;;;;;;;;;0.00;0.00;;;;;6.73;71.75;102764.22;5010466;28;10245;-71
2021/12/20 05:27:09;;;;;;;;;0.00;0.00;;;;;6.74;72.42;102770.47;4992094;28;10110;-70
2021/12/20 05:29:36;;;;;;;;;1.25;0.00;;;;;6.81;73.25;102776.22;5010919;28;10378;-70
2021/12/20 05:32:05;;;;;;;;;1.00;0.00;;;;;6.80;73.15;102770.00;5010967;28;10229;-70
2021/12/20 05:34:34;;;;;;;;;1.00;1.00;;;;;6.76;73.23;102772.06;5010461;28;10270;-69
2021/12/20 05:37:00;;;;;;;;;0.00;0.00;;;;;6.78;73.37;102777.31;5010449;28;10139;-70
2021/12/20 05:39:27;;;;;;;;;0.00;0.00;;;;;6.84;74.40;102774.16;5009379;28;10161;-69
2021/12/20 05:41:54;;;;;;;;;0.75;0.75;;;;;6.70;73.45;102777.91;5005605;28;10145;-70
2021/12/20 05:44:20;;;;;;;;;3.00;0.00;;;;;6.70;74.25;102779.75;5009955;28;10244;-69
2021/12/20 05:46:47;;;;;;;;;0.00;0.00;;;;;6.74;75.27;102781.22;5010229;28;10083;-72
2021/12/20 05:49:13;;;;;;;;;0.00;0.00;;;;;6.75;76.02;102778.41;5010264;28;10216;-70
2021/12/20 05:51:40;;;;;;;;;0.00;0.00;;;;;6.67;74.39;102774.56;4991612;28;10255;-69
2021/12/20 05:54:06;;;;;;;;;0.00;0.00;;;;;6.56;73.75;102782.63;5010157;28;10433;-69
2021/12/20 05:56:32;;;;;;;;;1.00;0.00;;;;;6.64;72.53;102783.75;5009501;28;10236;-69
2021/12/20 05:58:59;;;;;;;;;0.00;0.00;;;;;6.69;72.74;102781.59;5009471;28;10148;-68
2021/12/20 06:01:26;;;;;;;;;0.00;0.00;;;;;6.73;73.40;102782.22;5009262;28;10861;-69
2021/12/20 06:03:52;;;;;;;;;2.00;0.00;;;;;6.66;73.08;102794.38;5010266;28;10291;-68
2021/12/20 06:06:19;;;;;;;;;0.00;0.00;;;;;6.65;73.05;102790.84;5009862;28;10143;-68
2021/12/20 06:08:45;;;;;;;;;1.00;1.00;;;;;6.68;73.71;102785.22;5010257;28;10225;-70
2021/12/20 06:11:13;;;;;;;;;2.25;0.00;;;;;6.70;74.84;102777.91;5008612;28;10357;-69
2021/12/20 06:13:40;;;;;;;;;0.00;0.00;;;;;6.66;74.74;102784.47;5010279;28;11021;-69
2021/12/20 06:16:06;;;;;;;;;0.00;0.00;;;;;6.59;73.64;102787.75;5003543;28;10262;-68
2021/12/20 06:18:33;;;;;;;;;0.00;0.00;;;;;6.61;73.23;102792.06;5009997;28;9975;-69
2021/12/20 06:20:59;;;;;;;;;0.00;0.00;;;;;6.63;73.83;102795.47;5009253;28;10176;-70
2021/12/20 06:23:25;;;;;;;;;0.00;0.00;;;;;6.63;74.22;102800.00;5010382;28;10711;-69
2021/12/20 06:25:52;;;;;;;;;0.50;0.50;;;;;6.58;73.58;102784.22;5008215;28;10295;-71
2021/12/20 06:28:18;;;;;;;;;0.00;0.00;;;;;6.58;73.37;102789.59;5010278;28;10073;-69
2021/12/20 06:30:45;;;;;;;;;4.00;0.00;;;;;6.55;72.72;102788.97;5010295;28;10656;-70
2021/12/20 06:33:11;;;;;;;;;0.00;0.00;;;;;6.52;73.42;102787.38;4986588;28;10455;-69
2021/12/20 06:35:38;;;;;;;;;0.00;0.00;;;;;6.54;73.75;102792.63;5009882;28;10284;-70
2021/12/20 06:38:07;;;;;;;;;0.50;0.00;;;;;6.50;73.26;102794.69;5009837;28;10285;-70
2021/12/20 06:40:34;;;;;;;;;1.00;0.00;;;;;6.36;72.74;102800.22;5009289;28;10204;-70
2021/12/20 06:43:02;;;;;;;;;0.00;0.00;;;;;6.44;74.04;102792.44;5008445;28;10290;-69
2021/12/20 06:45:29;;;;;;;;;0.00;0.00;;;;;6.38;74.01;102792.91;5009929;28;10393;-69
2021/12/20 06:47:56;;;;;;;;;0.00;0.00;;;;;6.39;74.37;102794.63;5008829;28;10213;-68
2021/12/20 06:50:23;;;;;;;;;0.00;0.00;;;;;6.29;74.00;102801.66;5010187;28;10054;-68
2021/12/20 06:52:49;;;;;;;;;0.00;0.00;;;;;6.27;75.03;102798.22;5009804;28;10361;-68
2021/12/20 06:55:16;;;;;;;;;2.00;0.00;;;;;6.19;74.00;102801.47;5009023;28;10442;-68
2021/12/20 06:57:42;;;;;;;;;1.00;0.00;;;;;6.17;74.81;102796.19;5013664;28;10240;-68
2021/12/20 07:00:09;;;;;;;;;0.00;0.00;;;;;6.09;75.49;102805.81;5013817;28;10908;-68
2021/12/20 07:02:36;;;;;;;;;0.00;0.00;;;;;6.04;76.26;102803.47;5012518;28;10479;-68
2021/12/20 07:05:03;;;;;;;;;0.00;0.00;;;;;6.10;77.16;102805.69;5009290;28;10333;-68
2021/12/20 07:07:29;;;;;;;;;0.00;0.00;;;;;6.10;78.46;102807.53;5012016;28;10966;-68
2021/12/20 07:09:56;;;;;;;;;0.75;0.00;;;;;6.13;79.51;102812.69;5013225;28;10164;-71
2021/12/20 07:12:23;;;;;;;;;0.00;0.00;;;;;6.12;79.68;102817.19;5013305;28;10237;-70
2021/12/20 07:14:51;;;;;;;;;0.00;0.00;;;;;6.09;80.66;102817.41;5011552;28;11071;-71
2021/12/20 07:17:19;;;;;;;;;1.00;0.00;;;;;5.98;81.07;102808.44;4995303;28;10354;-71
2021/12/20 07:19:46;;;;;;;;;0.00;0.00;;;;;6.04;81.65;102821.41;5013294;28;10389;-70
2021/12/20 07:22:12;;;;;;;;;0.00;0.00;;;;;6.10;81.94;102811.06;5011512;28;10355;-69
2021/12/20 07:24:39;;;;;;;;;0.00;0.00;;;;;6.23;83.67;102811.06;5013228;28;10290;-69
2021/12/20 07:27:07;;;;;;;;;0.00;0.00;;;;;6.15;83.02;102819.66;5011924;28;11175;-72
2021/12/20 07:29:35;;;;;;;;;0.00;0.00;;;;;6.12;82.89;102809.13;5009450;28;10488;-69
2021/12/20 07:32:02;;;;;;;;;0.00;0.00;;;;;6.12;83.20;102819.88;5011892;28;10581;-71
2021/12/20 07:34:28;;;;;;;;;0.00;0.00;;;;;6.10;83.72;102821.81;5011201;28;10611;-69
2021/12/20 07:36:55;;;;;;;;;0.00;0.00;;;;;6.10;84.13;102812.91;5000281;28;10366;-68
2021/12/20 07:39:21;;;;;;;;;0.00;0.00;;;;;6.07;84.20;102813.13;5006290;28;10487;-68
2021/12/20 07:41:51;;;;;;;;;0.00;0.00;;;;;6.10;84.50;102823.66;5006516;28;10377;-69
2021/12/20 07:44:20;;;;;;;;;0.00;0.00;;;;;6.12;84.43;102819.03;4987856;28;10410;-70
2021/12/20 07:46:46;;;;;;;;;0.00;0.00;;;;;6.12;83.76;102821.72;5003916;28;10449;-69
2021/12/20 07:49:12;;;;;;;;;0.00;0.00;;;;;6.12;83.72;102829.78;5006459;28;10349;-70
2021/12/20 07:51:39;;;;;;;;;0.00;0.00;;;;;6.15;83.79;102825.03;5006472;28;10460;-68
2021/12/20 07:54:06;;;;;;;;;0.25;0.00;;;;;6.16;83.83;102824.06;5003707;28;10289;-70
2021/12/20 07:56:33;;;;;;;;;0.00;0.00;;;;;6.13;83.16;102824.28;5006539;28;10279;-69
2021/12/20 07:58:59;;;;;;;;;0.75;0.00;;;;;6.13;83.70;102823.44;5006070;28;10233;-69
2021/12/20 08:01:27;;;;;;;;;0.75;0.00;;;;;6.19;84.12;102831.03;4987251;28;11012;-68
2021/12/20 08:03:54;;;;;;;;;1.00;0.00;;;;;6.12;83.38;102829.78;5005393;28;10455;-73
2021/12/20 08:06:21;;;;;;;;;0.00;0.00;;;;;6.09;83.21;102828.19;5005606;28;10379;-69
2021/12/20 08:08:48;;;;;;;;;0.00;0.00;;;;;6.13;83.15;102829.66;4987011;28;10415;-68
2021/12/20 08:11:15;;;;;;;;;0.75;0.75;;;;;6.20;83.31;102822.03;5005971;28;10401;-69
2021/12/20 08:13:44;;;;;;;;;0.00;0.00;;;;;6.21;82.79;102826.44;5003731;28;10397;-70
2021/12/20 08:16:13;;;;;;;;;0.00;0.00;;;;;6.18;82.58;102826.63;5009079;28;10308;-69
2021/12/20 08:18:41;;;;;;;;;0.00;0.00;;;;;6.22;83.06;102828.16;5006261;28;10307;-70
2021/12/20 08:21:07;;;;;;;;;0.00;0.00;;;;;6.24;83.06;102833.44;5005791;28;10357;-68
2021/12/20 08:23:34;;;;;;;;;0.00;0.00;;;;;6.25;83.66;102841.38;5004626;28;10376;-70
2021/12/20 08:26:01;;;;;;;;;0.00;0.00;;;;;6.27;82.99;102830.50;5004635;28;10375;-69
2021/12/20 08:28:28;;;;;;;;;0.75;0.00;;;;;6.26;82.57;102832.34;5006251;28;10307;-71
2021/12/20 08:30:55;;;;;;;;;0.00;0.00;;;;;6.28;83.08;102834.91;5004439;28;10325;-69
2021/12/20 08:33:21;;;;;;;;;0.00;0.00;;;;;6.25;83.43;102840.53;5006556;28;10505;-71
2021/12/20 08:35:49;;;;;;;;;0.00;0.00;;;;;6.26;83.66;102848.47;5004447;28;10508;-70
2021/12/20 08:38:17;;;;;;;;;0.00;0.00;;;;;6.23;83.65;102837.94;5007174;28;10290;-68
2021/12/20 08:40:45;;;;;;;;;0.00;0.00;;;;;6.28;83.73;102843.00;5007458;28;11052;-72
2021/12/20 08:43:11;;;;;;;;;0.75;0.75;;;;;6.23;84.00;102850.53;5009630;28;10499;-69
2021/12/20 08:45:38;;;;;;;;;0.00;0.00;;;;;6.32;84.51;102848.03;5009255;28;10476;-70
2021/12/20 08:48:04;;;;;;;;;0.00;0.00;;;;;6.31;84.29;102845.44;5009901;28;10282;-68
2021/12/20 08:50:31;;;;;;;;;0.00;0.00;;;;;6.32;84.96;102841.78;5009998;28;10307;-72
2021/12/20 08:52:58;;;;;;;;;0.00;0.00;;;;;6.37;84.54;102853.91;5009384;28;10285;-68
2021/12/20 08:55:25;;;;;;;;;0.00;0.00;;;;;6.40;83.83;102851.00;5009242;28;10374;-69
2021/12/20 08:57:52;;;;;;;;;0.00;0.00;;;;;6.41;83.32;102850.03;5007560;28;10276;-69
2021/12/20 09:00:24;;;;;;;;;0.00;0.00;;;;;6.39;82.65;102848.44;5008216;28;10238;-70
2021/12/20 09:02:51;;;;;;;;;0.00;0.00;;;;;6.40;83.44;102851.00;5006763;28;10385;-74
2021/12/20 09:05:19;;;;;;;;;0.75;0.00;;;;;6.38;82.64;102860.16;5008137;28;10322;-71
2021/12/20 09:07:46;;;;;;;;;0.00;0.00;;;;;6.41;82.71;102852.72;5008982;28;10414;-69
2021/12/20 09:10:14;;;;;;;;;0.00;0.00;;;;;6.33;81.52;102854.25;5009662;28;10241;-69
2021/12/20 09:12:44;;;;;;;;;0.00;0.00;;;;;6.32;81.56;102856.09;5013112;28;10289;-69
2021/12/20 09:15:16;;;;;;;;;0.00;0.00;;;;;6.39;81.70;102859.19;5010446;28;10390;-69
2021/12/20 09:17:49;;;;;;;;;0.75;0.75;;;;;6.31;81.22;102865.13;4989245;28;10345;-70
2021/12/20 09:20:21;;;;;;;;;1.00;0.00;;;;;6.38;81.59;102863.72;4983050;28;10453;-68
2021/12/20 09:22:57;;;;;;;;;0.00;0.00;;;;;6.41;81.93;102865.31;5007334;28;10488;-69
2021/12/20 09:25:27;;;;;;;;;0.50;0.00;;;;;6.40;82.60;102866.28;5010214;28;10312;-72
2021/12/20 09:27:56;;;;;;;;;0.00;0.00;;;;;6.41;83.03;102863.47;5009804;28;10369;-70
2021/12/20 09:30:25;;;;;;;;;1.50;0.00;;;;;6.46;83.24;102864.03;5010593;28;10419;-69
2021/12/20 09:32:52;;;;;;;;;0.00;0.00;;;;;6.49;82.55;102857.56;5005925;28;10318;-69
2021/12/20 09:35:19;;;;;;;;;0.00;0.00;;;;;6.64;84.23;102861.78;5007137;28;10239;-68
2021/12/20 09:37:50;;;;;;;;;0.00;0.00;;;;;6.55;82.18;102869.69;5010589;28;10347;-68
2021/12/20 09:40:30;;;;;;;;;0.00;0.00;;;;;6.50;81.89;102864.66;5010608;28;10175;-69
2021/12/20 09:43:00;;;;;;;;;0.00;0.00;;;;;6.32;81.03;102882.13;5010251;28;10187;-69
2021/12/20 09:45:27;;;;;;;;;0.00;0.00;;;;;6.44;82.26;102878.53;5010328;28;10447;-68
2021/12/20 09:47:53;;;;;;;;;0.00;0.00;;;;;6.39;82.17;102869.94;4996080;28;10294;-68
2021/12/20 09:50:20;;;;;;;;;0.25;0.25;;;;;6.45;82.62;102873.06;5007907;28;10223;-68
2021/12/20 09:52:47;;;;;;;;;1.00;0.00;;;;;6.50;82.53;102877.25;5010500;28;11068;-69
2021/12/20 09:55:15;;;;;;;;;0.00;0.00;;;;;6.54;82.81;102878.75;5010615;28;10206;-68
2021/12/20 09:57:47;;;;;;;;;0.00;0.00;;;;;6.53;82.25;102875.19;5009801;28;10239;-70
2021/12/20 10:00:17;;;;;;;;;0.00;0.00;;;;;6.46;81.88;102872.09;4992546;28;11026;-71
2021/12/20 10:02:45;;;;;;;;;0.00;0.00;;;;;6.33;81.89;102876.63;5010573;28;10282;-68
2021/12/20 10:05:13;;;;;;;;;1.00;1.00;;;;;6.43;81.56;102871.44;5010374;28;10324;-70
2021/12/20 10:07:42;;;;;;;;;1.00;0.00;;;;;6.55;82.91;102872.38;5009780;28;10282;-69
2021/12/20 10:10:10;;;;;;;;;0.25;0.25;;;;;6.63;82.54;102878.06;5008668;28;10378;-71
2021/12/20 10:12:47;;;;;;;;;0.00;0.00;;;;;6.63;82.19;102889.69;4996479;28;10279;-71
2021/12/20 10:15:15;;;;;;;;;0.00;0.00;;;;;6.59;81.43;102881.94;4990462;28;10239;-70
2021/12/20 10:17:56;;;;;;;;;0.00;0.00;;;;;6.65;81.57;102894.94;5007735;28;10230;-70
2021/12/20 10:20:26;;;;;;;;;0.00;0.00;;;;;6.65;81.91;102889.56;5010012;28;10217;-69
2021/12/20 10:23:06;;;;;;;;;0.00;0.00;;;;;6.69;82.42;102885.66;5009809;28;10917;-70
2021/12/20 10:25:35;;;;;;;;;0.00;0.00;;;;;6.67;82.30;102880.41;5002035;28;10249;-71
2021/12/20 10:28:17;;;;;;;;;0.25;0.25;;;;;6.46;81.02;102892.75;5000454;28;10230;-70
2021/12/20 10:30:49;;;;;;;;;1.75;1.00;;;;;6.49;80.50;102884.47;5009331;28;10230;-72
2021/12/20 10:33:19;;;;;;;;;0.00;0.00;;;;;6.47;79.92;102886.41;5007832;28;10323;-71
2021/12/20 10:35:52;;;;;;;;;0.00;0.00;;;;;6.47;79.74;102889.09;5008066;28;10226;-69
2021/12/20 10:38:29;;;;;;;;;0.25;0.25;;;;;6.46;80.28;102887.38;5009546;28;10313;-71
2021/12/20 10:40:59;;;;;;;;;0.00;0.00;;;;;6.52;80.41;102895.00;5009863;28;10323;-69
2021/12/20 10:43:33;;;;;;;;;1.00;1.00;;;;;6.52;80.77;102886.06;4991740;28;10284;-70
2021/12/20 10:46:09;;;;;;;;;0.00;0.00;;;;;6.47;80.57;102889.09;5008167;28;10285;-70
2021/12/20 10:48:44;;;;;;;;;2.00;0.00;;;;;6.51;80.38;102877.13;5009259;28;10295;-70
2021/12/20 10:51:21;;;;;;;;;0.00;0.00;;;;;6.51;80.38;102877.13;5008085;28;10311;-69
2021/12/20 10:53:56;;;;;;;;;0.00;0.00;;;;;6.48;80.60;102880.91;4972683;28;10408;-70
2021/12/20 10:56:25;;;;;;;;;0.00;0.00;;;;;6.63;80.92;102870.84;4996284;28;10518;-70
2021/12/20 10:58:53;;;;;;;;;0.00;0.00;;;;;6.54;80.30;102870.66;5009182;28;10370;-69
2021/12/20 11:04:05;;;;;;;;;0.00;0.00;;;;;6.51;80.16;102879.81;4989553;28;10394;-70
2021/12/20 11:09:11;;;;;;;;;0.00;0.00;;;;;6.64;80.08;102874.38;4998409;28;10318;-70
2021/12/20 11:11:40;;;;;;;;;2.00;0.00;;;;;6.48;79.75;102878.22;5008875;28;10425;-70
2021/12/20 11:14:08;;;;;;;;;4.00;0.25;;;;;6.34;80.43;102872.97;5008918;28;10396;-69
2021/12/20 11:16:55;;;;;;;;;1.50;1.00;;;;;6.55;80.90;102870.56;5008746;28;10375;-69
2021/12/20 11:19:42;;;;;;;;;0.00;0.00;;;;;6.63;80.51;102878.91;5006634;28;10351;-69
2021/12/20 11:22:14;;;;;;;;;1.00;1.00;;;;;6.57;81.59;102871.31;5002514;28;10521;-70
2021/12/20 11:24:50;;;;;;;;;1.00;1.00;;;;;6.61;81.08;102869.22;5008806;28;10317;-69
2021/12/20 11:27:32;;;;;;;;;0.25;0.00;;;;;6.66;80.95;102875.13;5009120;28;10397;-71
2021/12/20 11:30:16;;;;;;;;;1.25;0.00;;;;;6.54;80.45;102874.22;5008274;28;10441;-71
2021/12/20 11:32:43;;;;;;;;;1.00;1.00;;;;;6.67;81.37;102856.19;5006990;28;10460;-72
2021/12/20 11:35:15;;;;;;;;;0.25;0.25;;;;;6.63;80.58;102872.66;5009036;28;10342;-71
2021/12/20 11:37:42;;;;;;;;;2.00;0.00;;;;;6.51;79.56;102874.44;5008761;28;10445;-71
2021/12/20 11:40:12;;;;;;;;;0.00;0.00;;;;;6.38;79.11;102868.22;4991442;28;10353;-71
2021/12/20 11:42:38;;;;;;;;;0.00;0.00;;;;;6.50;79.22;102864.66;5009274;28;10382;-72
2021/12/20 11:45:08;;;;;;;;;1.00;1.00;;;;;6.55;78.52;102867.88;5011772;28;10315;-71
2021/12/20 11:47:47;;;;;;;;;0.00;0.00;;;;;6.67;78.87;102869.63;4991150;28;10376;-71
2021/12/20 11:50:17;;;;;;;;;0.00;0.00;;;;;6.66;79.57;102857.16;5004078;28;11102;-71
2021/12/20 11:52:47;;;;;;;;;0.50;0.00;;;;;6.76;79.82;102857.34;5012629;28;10302;-71
2021/12/20 11:55:21;;;;;;;;;1.00;1.00;;;;;6.70;79.06;102871.25;5012173;28;10428;-69
2021/12/20 11:58:03;;;;;;;;;0.00;0.00;;;;;6.78;78.46;102858.09;5011741;28;11076;-70
2021/12/20 12:00:32;;;;;;;;;0.75;0.00;;;;;6.83;78.35;102863.13;5004488;28;10465;-70
2021/12/20 12:03:15;;;;;;;;;1.00;1.00;;;;;6.60;75.57;102851.38;5009929;28;10242;-71